Phippsburg, Maine
Current Conditions -  °F | °C
As of 8:53 PM on Saturday 22 Nov 2014 (Local Time) from KIWI Reporting Station
Scattered Clouds Scattered Clouds  
Wind Chill: 34°   Ceiling: Unl
Heat Index: 40°   Visibility: 10mi
Dew Point: 14°   Wind: 9mph
Humidity: 35%   Direction: 230°SW
Pressure: 29.97"   Gusts: 21mph
Location:  43.82°N, 69.82°W
Report Text: KIWI 230153Z AUTO 23008G18KT 10SM FEW055 SCT085 04/M10 A2997 RMK AO2 SLP149 T00441100
Loading
Personal Weather Stations






























Interactive Weather Map New forecast layout! Learn more

10-Day Weather Forecast

Advertisements
Track Severe Weather on mobile